ミラノ/マルペンサ の空港の天気 - METARとTAF

ミラノ・マルペンサ国際空港 ( LIMC / MXP ) - イタリア ミラノ
飛行場実況気象(Metar)
観測時間05/23 02:50 CEST (05/23 00:50 UTC)
風向・風速北 2m/s
視程10km以上
天気現象
全天の8割程度の雲 雲底高度 1520m
気温15℃
湿度94%
気圧1016hPa
METARLIMC 230050Z 36003KT 9999 BKN050 15/14 Q1016 NOSIG
過去の天気等 Google飛行場航空写真 Wunderground天気予報

過去48時間のMETAR

飛行場予報(TAF)
発表時間: 5/23 01:00 CEST (5/22 23:00 UTC)
予報対象時間: 23日2時 CEST ~ 24日8時 CEST
風向・風速不定 3m/s
視程10km以上
全天の4割程度の雲 雲底高度 760m
全天の8割程度の雲 雲底高度 1,830m
23日2時 CEST ~ 23日4時 CEST に 確率 40% で一時的に
視程4,000m
天気現象雷雨
TAF LIMC 222300Z 2300/2406 VRB05KT 9999 SCT025 BKN060
PROB40 TEMPO 2300/2302 4000 TSRA